sensor_id;sensor_type;location;lat;lon;timestamp;pressure;altitude;pressure_sealevel;temperature;humidity
26978;BME280;56314;48.088;11.642;2023-02-04T00:01:30;96296.53;;;3.95;100.00
26978;BME280;56314;48.088;11.642;2023-02-04T00:03:55;96288.09;;;3.88;100.00
26978;BME280;56314;48.088;11.642;2023-02-04T00:06:20;96288.16;;;3.87;100.00
26978;BME280;56314;48.088;11.642;2023-02-04T00:08:46;96284.72;;;3.86;100.00
26978;BME280;56314;48.088;11.642;2023-02-04T00:11:11;96281.56;;;3.78;100.00
26978;BME280;56314;48.088;11.642;2023-02-04T00:13:37;96283.25;;;3.79;100.00
26978;BME280;56314;48.088;11.642;2023-02-04T00:16:02;96288.38;;;3.80;100.00
26978;BME280;56314;48.088;11.642;2023-02-04T00:18:28;96300.41;;;3.83;100.00
26978;BME280;56314;48.088;11.642;2023-02-04T00:20:54;96312.78;;;3.76;100.00
26978;BME280;56314;48.088;11.642;2023-02-04T00:23:19;96318.69;;;3.80;100.00
26978;BME280;56314;48.088;11.642;2023-02-04T00:25:44;96299.13;;;3.71;100.00
26978;BME280;56314;48.088;11.642;2023-02-04T00:28:10;96299.94;;;3.72;100.00
26978;BME280;56314;48.088;11.642;2023-02-04T00:30:35;96292.09;;;3.73;100.00
26978;BME280;56314;48.088;11.642;2023-02-04T00:33:01;96299.13;;;3.71;100.00
26978;BME280;56314;48.088;11.642;2023-02-04T00:35:26;96299.03;;;3.73;100.00
26978;BME280;56314;48.088;11.642;2023-02-04T00:37:51;96318.03;;;3.75;100.00
26978;BME280;56314;48.088;11.642;2023-02-04T00:40:17;96311.88;;;3.77;100.00
26978;BME280;56314;48.088;11.642;2023-02-04T00:42:42;96329.72;;;3.87;100.00
26978;BME280;56314;48.088;11.642;2023-02-04T00:45:09;96339.28;;;3.86;100.00
26978;BME280;56314;48.088;11.642;2023-02-04T00:47:34;96347.13;;;3.84;100.00
26978;BME280;56314;48.088;11.642;2023-02-04T00:49:59;96342.72;;;3.87;100.00
26978;BME280;56314;48.088;11.642;2023-02-04T00:52:25;96338.41;;;3.85;100.00
26978;BME280;56314;48.088;11.642;2023-02-04T00:54:50;96322.06;;;3.83;100.00
26978;BME280;56314;48.088;11.642;2023-02-04T00:57:15;96325.75;;;3.76;100.00
26978;BME280;56314;48.088;11.642;2023-02-04T00:59:41;96332.75;;;3.74;100.00
26978;BME280;56314;48.088;11.642;2023-02-04T01:02:06;96347.66;;;3.69;100.00
26978;BME280;56314;48.088;11.642;2023-02-04T01:04:32;96356.41;;;3.66;100.00
26978;BME280;56314;48.088;11.642;2023-02-04T01:06:57;96339.06;;;3.67;100.00
26978;BME280;56314;48.088;11.642;2023-02-04T01:09:23;96349.56;;;3.64;100.00
26978;BME280;56314;48.088;11.642;2023-02-04T01:11:48;96345.44;;;3.58;100.00
26978;BME280;56314;48.088;11.642;2023-02-04T01:14:14;96363.69;;;3.55;100.00
26978;BME280;56314;48.088;11.642;2023-02-04T01:16:39;96363.66;;;3.57;100.00
26978;BME280;56314;48.088;11.642;2023-02-04T01:19:05;96376.75;;;3.53;100.00
26978;BME280;56314;48.088;11.642;2023-02-04T01:21:30;96385.44;;;3.52;100.00
26978;BME280;56314;48.088;11.642;2023-02-04T01:23:55;96369.91;;;3.51;100.00
26978;BME280;56314;48.088;11.642;2023-02-04T01:26:21;96361.25;;;3.50;100.00
26978;BME280;56314;48.088;11.642;2023-02-04T01:28:46;96355.41;;;3.44;100.00
26978;BME280;56314;48.088;11.642;2023-02-04T01:31:12;96371.81;;;3.46;100.00
26978;BME280;56314;48.088;11.642;2023-02-04T01:33:38;96370.06;;;3.46;100.00
26978;BME280;56314;48.088;11.642;2023-02-04T01:36:03;96358.03;;;3.44;100.00
26978;BME280;56314;48.088;11.642;2023-02-04T01:38:29;96361.53;;;3.43;100.00
26978;BME280;56314;48.088;11.642;2023-02-04T01:40:54;96363.19;;;3.45;100.00
26978;BME280;56314;48.088;11.642;2023-02-04T01:43:20;96363.81;;;3.52;100.00
26978;BME280;56314;48.088;11.642;2023-02-04T01:45:48;96375.13;;;3.51;100.00
26978;BME280;56314;48.088;11.642;2023-02-04T01:48:14;96388.44;;;3.67;100.00
26978;BME280;56314;48.088;11.642;2023-02-04T01:50:59;96403.19;;;3.66;100.00
26978;BME280;56314;48.088;11.642;2023-02-04T01:53:26;96395.47;;;3.63;100.00
26978;BME280;56314;48.088;11.642;2023-02-04T01:55:51;96385.03;;;3.65;100.00
26978;BME280;56314;48.088;11.642;2023-02-04T01:58:17;96391.84;;;3.67;100.00
26978;BME280;56314;48.088;11.642;2023-02-04T02:00:43;96392.81;;;3.65;100.00
26978;BME280;56314;48.088;11.642;2023-02-04T02:03:09;96397.84;;;3.69;100.00
26978;BME280;56314;48.088;11.642;2023-02-04T02:05:43;96395.22;;;3.71;100.00
26978;BME280;56314;48.088;11.642;2023-02-04T02:08:11;96384.84;;;3.71;100.00
26978;BME280;56314;48.088;11.642;2023-02-04T02:10:38;96399.31;;;3.78;100.00
26978;BME280;56314;48.088;11.642;2023-02-04T02:13:06;96399.38;;;3.77;100.00
26978;BME280;56314;48.088;11.642;2023-02-04T02:15:32;96396.81;;;3.75;100.00
26978;BME280;56314;48.088;11.642;2023-02-04T02:17:58;96395.00;;;3.77;100.00
26978;BME280;56314;48.088;11.642;2023-02-04T02:20:24;96405.94;;;3.87;100.00
26978;BME280;56314;48.088;11.642;2023-02-04T02:23:17;96405.94;;;3.87;100.00
26978;BME280;56314;48.088;11.642;2023-02-04T02:25:45;96418.06;;;3.87;100.00
26978;BME280;56314;48.088;11.642;2023-02-04T02:28:14;96412.09;;;3.84;100.00
26978;BME280;56314;48.088;11.642;2023-02-04T02:30:40;96411.31;;;3.82;100.00
26978;BME280;56314;48.088;11.642;2023-02-04T02:33:10;96418.88;;;3.89;100.00
26978;BME280;56314;48.088;11.642;2023-02-04T02:35:39;96415.28;;;3.93;100.00
26978;BME280;56314;48.088;11.642;2023-02-04T02:38:10;96413.34;;;3.98;100.00
26978;BME280;56314;48.088;11.642;2023-02-04T02:40:36;96424.69;;;3.97;100.00
26978;BME280;56314;48.088;11.642;2023-02-04T02:43:02;96425.41;;;4.00;100.00
26978;BME280;56314;48.088;11.642;2023-02-04T02:45:30;96429.00;;;3.96;100.00
26978;BME280;56314;48.088;11.642;2023-02-04T02:47:58;96425.34;;;4.02;100.00
26978;BME280;56314;48.088;11.642;2023-02-04T02:50:26;96418.78;;;3.92;100.00
26978;BME280;56314;48.088;11.642;2023-02-04T02:52:53;96420.78;;;3.83;100.00
26978;BME280;56314;48.088;11.642;2023-02-04T02:55:22;96430.38;;;3.81;100.00
26978;BME280;56314;48.088;11.642;2023-02-04T02:57:48;96432.88;;;3.84;100.00
26978;BME280;56314;48.088;11.642;2023-02-04T03:00:18;96445.25;;;3.78;100.00
26978;BME280;56314;48.088;11.642;2023-02-04T03:02:54;96429.78;;;3.73;100.00
26978;BME280;56314;48.088;11.642;2023-02-04T03:05:21;96431.59;;;3.71;100.00
26978;BME280;56314;48.088;11.642;2023-02-04T03:07:47;96437.53;;;3.75;100.00
26978;BME280;56314;48.088;11.642;2023-02-04T03:10:15;96439.63;;;3.63;100.00
26978;BME280;56314;48.088;11.642;2023-02-04T03:12:40;96433.78;;;3.57;100.00
26978;BME280;56314;48.088;11.642;2023-02-04T03:15:06;96434.47;;;3.62;100.00
26978;BME280;56314;48.088;11.642;2023-02-04T03:17:31;96439.03;;;3.55;100.00
26978;BME280;56314;48.088;11.642;2023-02-04T03:19:57;96443.31;;;3.56;100.00
26978;BME280;56314;48.088;11.642;2023-02-04T03:22:23;96456.47;;;3.51;100.00
26978;BME280;56314;48.088;11.642;2023-02-04T03:24:48;96457.25;;;3.53;100.00
26978;BME280;56314;48.088;11.642;2023-02-04T03:27:14;96453.47;;;3.64;100.00
26978;BME280;56314;48.088;11.642;2023-02-04T03:29:42;96452.78;;;3.59;100.00
26978;BME280;56314;48.088;11.642;2023-02-04T03:32:08;96457.09;;;3.58;100.00
26978;BME280;56314;48.088;11.642;2023-02-04T03:34:33;96456.94;;;3.64;100.00
26978;BME280;56314;48.088;11.642;2023-02-04T03:36:58;96461.22;;;3.65;100.00
26978;BME280;56314;48.088;11.642;2023-02-04T03:39:24;96471.78;;;3.59;100.00
26978;BME280;56314;48.088;11.642;2023-02-04T03:41:49;96477.06;;;3.58;100.00
26978;BME280;56314;48.088;11.642;2023-02-04T03:44:14;96481.22;;;3.62;100.00
26978;BME280;56314;48.088;11.642;2023-02-04T03:46:40;96486.16;;;3.71;100.00
26978;BME280;56314;48.088;11.642;2023-02-04T03:49:05;96482.75;;;3.69;100.00
26978;BME280;56314;48.088;11.642;2023-02-04T03:51:30;96488.75;;;3.71;100.00
26978;BME280;56314;48.088;11.642;2023-02-04T03:53:56;96499.00;;;3.76;100.00
26978;BME280;56314;48.088;11.642;2023-02-04T03:56:21;96498.09;;;3.77;100.00
26978;BME280;56314;48.088;11.642;2023-02-04T03:58:46;96508.34;;;3.81;100.00
26978;BME280;56314;48.088;11.642;2023-02-04T04:01:12;96516.94;;;3.83;100.00
26978;BME280;56314;48.088;11.642;2023-02-04T04:03:37;96519.47;;;3.85;100.00
26978;BME280;56314;48.088;11.642;2023-02-04T04:06:02;96524.56;;;3.88;100.00
26978;BME280;56314;48.088;11.642;2023-02-04T04:08:30;96522.16;;;3.82;100.00
26978;BME280;56314;48.088;11.642;2023-02-04T04:10:55;96521.41;;;3.78;100.00
26978;BME280;56314;48.088;11.642;2023-02-04T04:13:21;96519.78;;;3.76;100.00
26978;BME280;56314;48.088;11.642;2023-02-04T04:15:47;96517.03;;;3.80;99.46
26978;BME280;56314;48.088;11.642;2023-02-04T04:18:12;96533.56;;;3.78;97.27
26978;BME280;56314;48.088;11.642;2023-02-04T04:20:38;96537.81;;;3.80;97.79
26978;BME280;56314;48.088;11.642;2023-02-04T04:23:03;96537.72;;;3.83;95.50
26978;BME280;56314;48.088;11.642;2023-02-04T04:25:28;96548.22;;;3.80;96.27
26978;BME280;56314;48.088;11.642;2023-02-04T04:27:54;96548.44;;;3.73;95.00
26978;BME280;56314;48.088;11.642;2023-02-04T04:30:19;96553.84;;;3.66;95.87
26978;BME280;56314;48.088;11.642;2023-02-04T04:32:44;96552.22;;;3.62;94.68
26978;BME280;56314;48.088;11.642;2023-02-04T04:35:09;96558.47;;;3.57;94.09
26978;BME280;56314;48.088;11.642;2023-02-04T04:37:35;96560.47;;;3.47;94.05
26978;BME280;56314;48.088;11.642;2023-02-04T04:40:00;96562.41;;;3.40;95.51
26978;BME280;56314;48.088;11.642;2023-02-04T04:42:26;96567.47;;;3.45;94.54
26978;BME280;56314;48.088;11.642;2023-02-04T04:44:52;96569.44;;;3.36;94.85
26978;BME280;56314;48.088;11.642;2023-02-04T04:47:17;96568.97;;;3.23;95.08
26978;BME280;56314;48.088;11.642;2023-02-04T04:49:42;96584.53;;;3.23;95.50
26978;BME280;56314;48.088;11.642;2023-02-04T04:52:08;96591.66;;;3.17;95.63
26978;BME280;56314;48.088;11.642;2023-02-04T04:54:34;96593.56;;;3.10;95.83
26978;BME280;56314;48.088;11.642;2023-02-04T04:57:00;96589.09;;;3.15;94.03
26978;BME280;56314;48.088;11.642;2023-02-04T04:59:25;96599.78;;;3.04;94.25
26978;BME280;56314;48.088;11.642;2023-02-04T05:01:50;96595.69;;;2.96;93.96
26978;BME280;56314;48.088;11.642;2023-02-04T05:04:15;96600.97;;;2.92;93.96
26978;BME280;56314;48.088;11.642;2023-02-04T05:06:41;96610.66;;;2.86;94.76
26978;BME280;56314;48.088;11.642;2023-02-04T05:09:06;96604.88;;;2.76;96.31
26978;BME280;56314;48.088;11.642;2023-02-04T05:11:33;96612.75;;;2.73;97.32
26978;BME280;56314;48.088;11.642;2023-02-04T05:13:59;96613.63;;;2.72;96.12
26978;BME280;56314;48.088;11.642;2023-02-04T05:16:24;96613.69;;;2.69;95.91
26978;BME280;56314;48.088;11.642;2023-02-04T05:18:49;96613.69;;;2.69;94.29
26978;BME280;56314;48.088;11.642;2023-02-04T05:21:15;96613.78;;;2.66;94.59
26978;BME280;56314;48.088;11.642;2023-02-04T05:23:40;96608.50;;;2.70;94.02
26978;BME280;56314;48.088;11.642;2023-02-04T05:26:05;96619.78;;;2.68;93.67
26978;BME280;56314;48.088;11.642;2023-02-04T05:28:31;96618.25;;;2.59;94.11
26978;BME280;56314;48.088;11.642;2023-02-04T05:30:56;96631.34;;;2.54;94.47
26978;BME280;56314;48.088;11.642;2023-02-04T05:33:21;96634.81;;;2.55;94.46
26978;BME280;56314;48.088;11.642;2023-02-04T05:35:47;96641.66;;;2.57;94.19
26978;BME280;56314;48.088;11.642;2023-02-04T05:38:12;96642.63;;;2.53;95.13
26978;BME280;56314;48.088;11.642;2023-02-04T05:40:37;96655.59;;;2.53;95.37
26978;BME280;56314;48.088;11.642;2023-02-04T05:43:03;96652.84;;;2.59;94.70
26978;BME280;56314;48.088;11.642;2023-02-04T05:45:29;96655.19;;;2.69;94.61
26978;BME280;56314;48.088;11.642;2023-02-04T05:47:54;96664.56;;;2.74;94.07
26978;BME280;56314;48.088;11.642;2023-02-04T05:50:19;96672.31;;;2.76;95.07
26978;BME280;56314;48.088;11.642;2023-02-04T05:52:45;96671.47;;;2.75;95.64
26978;BME280;56314;48.088;11.642;2023-02-04T05:55:11;96674.94;;;2.74;94.81
26978;BME280;56314;48.088;11.642;2023-02-04T05:57:36;96685.19;;;2.79;94.26
26978;BME280;56314;48.088;11.642;2023-02-04T06:00:02;96685.00;;;2.88;93.22
26978;BME280;56314;48.088;11.642;2023-02-04T06:02:28;96689.25;;;2.89;92.75
26978;BME280;56314;48.088;11.642;2023-02-04T06:04:53;96687.47;;;2.93;92.20
26978;BME280;56314;48.088;11.642;2023-02-04T06:07:18;96699.69;;;2.88;92.71
26978;BME280;56314;48.088;11.642;2023-02-04T06:09:43;96699.69;;;2.88;91.98
26978;BME280;56314;48.088;11.642;2023-02-04T06:12:09;96710.06;;;2.88;92.20
26978;BME280;56314;48.088;11.642;2023-02-04T06:14:34;96709.94;;;2.92;92.46
26978;BME280;56314;48.088;11.642;2023-02-04T06:17:00;96707.53;;;2.86;92.46
26978;BME280;56314;48.088;11.642;2023-02-04T06:19:25;96720.50;;;2.86;92.30
26978;BME280;56314;48.088;11.642;2023-02-04T06:21:50;96721.31;;;2.87;92.91
26978;BME280;56314;48.088;11.642;2023-02-04T06:24:16;96721.25;;;2.90;92.46
26978;BME280;56314;48.088;11.642;2023-02-04T06:26:41;96729.03;;;2.90;93.33
26978;BME280;56314;48.088;11.642;2023-02-04T06:29:06;96736.78;;;2.91;93.78
26978;BME280;56314;48.088;11.642;2023-02-04T06:31:32;96741.13;;;2.91;94.28
26978;BME280;56314;48.088;11.642;2023-02-04T06:33:57;96740.13;;;2.97;94.36
26978;BME280;56314;48.088;11.642;2023-02-04T06:36:22;96735.75;;;2.99;93.22
26978;BME280;56314;48.088;11.642;2023-02-04T06:38:48;96746.91;;;3.01;92.94
26978;BME280;56314;48.088;11.642;2023-02-04T06:41:13;96740.81;;;3.03;93.79
26978;BME280;56314;48.088;11.642;2023-02-04T06:43:38;96744.31;;;3.01;94.16
26978;BME280;56314;48.088;11.642;2023-02-04T06:46:04;96746.13;;;2.99;94.57
26978;BME280;56314;48.088;11.642;2023-02-04T06:48:29;96748.63;;;3.02;94.98
26978;BME280;56314;48.088;11.642;2023-02-04T06:50:55;96740.84;;;3.02;94.75
26978;BME280;56314;48.088;11.642;2023-02-04T06:53:20;96750.34;;;3.03;94.60
26978;BME280;56314;48.088;11.642;2023-02-04T06:55:45;96746.81;;;3.05;94.82
26978;BME280;56314;48.088;11.642;2023-02-04T06:58:11;96750.31;;;3.04;94.79
26978;BME280;56314;48.088;11.642;2023-02-04T07:00:36;96751.03;;;3.10;94.43
26978;BME280;56314;48.088;11.642;2023-02-04T07:03:01;96753.56;;;3.13;93.74
26978;BME280;56314;48.088;11.642;2023-02-04T07:05:27;96755.44;;;3.06;93.16
26978;BME280;56314;48.088;11.642;2023-02-04T07:07:52;96751.03;;;3.10;93.61
26978;BME280;56314;48.088;11.642;2023-02-04T07:10:17;96756.97;;;3.13;93.64
26978;BME280;56314;48.088;11.642;2023-02-04T07:12:45;96761.97;;;3.21;92.95
26978;BME280;56314;48.088;11.642;2023-02-04T07:15:10;96768.00;;;3.23;92.02
26978;BME280;56314;48.088;11.642;2023-02-04T07:17:35;96769.63;;;3.27;92.26
26978;BME280;56314;48.088;11.642;2023-02-04T07:20:01;96778.13;;;3.32;91.87
26978;BME280;56314;48.088;11.642;2023-02-04T07:22:26;96774.66;;;3.33;91.63
26978;BME280;56314;48.088;11.642;2023-02-04T07:24:52;96780.72;;;3.34;90.86
26978;BME280;56314;48.088;11.642;2023-02-04T07:27:17;96795.22;;;3.41;90.54
26978;BME280;56314;48.088;11.642;2023-02-04T07:29:42;96788.94;;;3.50;88.57
26978;BME280;56314;48.088;11.642;2023-02-04T07:32:08;96790.44;;;3.59;88.59
26978;BME280;56314;48.088;11.642;2023-02-04T07:34:33;96793.75;;;3.64;87.50
26978;BME280;56314;48.088;11.642;2023-02-04T07:36:58;96809.44;;;3.61;86.73
26978;BME280;56314;48.088;11.642;2023-02-04T07:39:24;96813.81;;;3.59;86.04
26978;BME280;56314;48.088;11.642;2023-02-04T07:41:49;96817.25;;;3.59;86.50
26978;BME280;56314;48.088;11.642;2023-02-04T07:44:14;96823.59;;;3.49;86.38
26978;BME280;56314;48.088;11.642;2023-02-04T07:46:40;96827.16;;;3.45;86.86
26978;BME280;56314;48.088;11.642;2023-02-04T07:49:05;96827.34;;;3.37;87.12
26978;BME280;56314;48.088;11.642;2023-02-04T07:51:30;96824.03;;;3.32;87.86
26978;BME280;56314;48.088;11.642;2023-02-04T07:53:56;96838.66;;;3.34;87.40
26978;BME280;56314;48.088;11.642;2023-02-04T07:56:21;96833.47;;;3.36;86.16
26978;BME280;56314;48.088;11.642;2023-02-04T07:58:47;96837.78;;;3.35;87.24
26978;BME280;56314;48.088;11.642;2023-02-04T08:01:12;96830.75;;;3.39;86.65
26978;BME280;56314;48.088;11.642;2023-02-04T08:03:37;96836.78;;;3.41;86.39
26978;BME280;56314;48.088;11.642;2023-02-04T08:06:03;96830.69;;;3.42;86.98
26978;BME280;56314;48.088;11.642;2023-02-04T08:08:28;96840.75;;;3.54;87.43
26978;BME280;56314;48.088;11.642;2023-02-04T08:10:53;96831.13;;;3.58;86.21
26978;BME280;56314;48.088;11.642;2023-02-04T08:13:19;96836.69;;;3.77;83.67
26978;BME280;56314;48.088;11.642;2023-02-04T08:15:44;96834.72;;;3.85;82.34
26978;BME280;56314;48.088;11.642;2023-02-04T08:18:10;96838.91;;;3.91;81.18
26978;BME280;56314;48.088;11.642;2023-02-04T08:20:35;96851.97;;;3.90;82.24
26978;BME280;56314;48.088;11.642;2023-02-04T08:23:00;96856.22;;;3.92;80.23
26978;BME280;56314;48.088;11.642;2023-02-04T08:25:26;96855.63;;;3.82;80.49
26978;BME280;56314;48.088;11.642;2023-02-04T08:27:53;96865.22;;;3.80;82.26
26978;BME280;56314;48.088;11.642;2023-02-04T08:30:18;96865.13;;;3.83;80.30
26978;BME280;56314;48.088;11.642;2023-02-04T08:32:43;96866.59;;;3.92;81.16
26978;BME280;56314;48.088;11.642;2023-02-04T08:35:10;96862.97;;;3.99;81.28
26978;BME280;56314;48.088;11.642;2023-02-04T08:37:36;96866.25;;;4.06;80.53
26978;BME280;56314;48.088;11.642;2023-02-04T08:40:01;96871.28;;;4.12;80.34
26978;BME280;56314;48.088;11.642;2023-02-04T08:42:26;96876.03;;;4.28;78.12
26978;BME280;56314;48.088;11.642;2023-02-04T08:44:52;96882.47;;;4.46;77.33
26978;BME280;56314;48.088;11.642;2023-02-04T08:47:17;96874.47;;;4.52;75.56
26978;BME280;56314;48.088;11.642;2023-02-04T08:49:43;96878.09;;;4.46;76.68
26978;BME280;56314;48.088;11.642;2023-02-04T08:52:08;96880.72;;;4.46;76.33
26978;BME280;56314;48.088;11.642;2023-02-04T08:54:34;96875.38;;;4.51;75.36
26978;BME280;56314;48.088;11.642;2023-02-04T08:57:00;96884.88;;;4.52;75.19
26978;BME280;56314;48.088;11.642;2023-02-04T08:59:26;96887.41;;;4.55;75.27
26978;BME280;56314;48.088;11.642;2023-02-04T09:01:52;96889.16;;;4.55;75.10
26978;BME280;56314;48.088;11.642;2023-02-04T09:04:18;96879.69;;;4.52;74.36
26978;BME280;56314;48.088;11.642;2023-02-04T09:06:44;96883.91;;;4.56;75.02
26978;BME280;56314;48.088;11.642;2023-02-04T09:09:11;96881.16;;;4.61;73.79
26978;BME280;56314;48.088;11.642;2023-02-04T09:11:36;96887.84;;;4.70;74.47
26978;BME280;56314;48.088;11.642;2023-02-04T09:14:02;96881.81;;;4.98;73.34
26978;BME280;56314;48.088;11.642;2023-02-04T09:16:27;96882.00;;;5.47;73.22
26978;BME280;56314;48.088;11.642;2023-02-04T09:18:52;96886.72;;;6.38;67.93
26978;BME280;56314;48.088;11.642;2023-02-04T09:21:18;96892.56;;;6.69;66.68
26978;BME280;56314;48.088;11.642;2023-02-04T09:23:43;96879.22;;;9.04;59.54
26978;BME280;56314;48.088;11.642;2023-02-04T09:26:10;96875.56;;;9.26;55.79
26978;BME280;56314;48.088;11.642;2023-02-04T09:28:36;96879.19;;;8.46;57.73
26978;BME280;56314;48.088;11.642;2023-02-04T09:31:01;96893.59;;;7.96;59.85
26978;BME280;56314;48.088;11.642;2023-02-04T09:33:27;96887.78;;;7.47;60.48
26978;BME280;56314;48.088;11.642;2023-02-04T09:35:52;96888.47;;;7.30;62.53
26978;BME280;56314;48.088;11.642;2023-02-04T09:38:17;96895.75;;;6.99;62.26
26978;BME280;56314;48.088;11.642;2023-02-04T09:40:46;96900.91;;;6.78;63.72
26978;BME280;56314;48.088;11.642;2023-02-04T09:43:17;96907.94;;;6.53;63.99
26978;BME280;56314;48.088;11.642;2023-02-04T09:45:44;96914.00;;;6.04;63.99
26978;BME280;56314;48.088;11.642;2023-02-04T09:48:11;96917.72;;;5.95;65.47
26978;BME280;56314;48.088;11.642;2023-02-04T09:50:37;96923.84;;;5.94;65.99
26978;BME280;56314;48.088;11.642;2023-02-04T09:53:04;96925.63;;;5.94;66.79
26978;BME280;56314;48.088;11.642;2023-02-04T09:55:36;96922.88;;;5.97;65.96
26978;BME280;56314;48.088;11.642;2023-02-04T09:58:07;96932.53;;;5.95;66.35
26978;BME280;56314;48.088;11.642;2023-02-04T10:00:36;96942.91;;;5.96;66.57
26978;BME280;56314;48.088;11.642;2023-02-04T10:03:02;96937.88;;;5.90;65.15
26978;BME280;56314;48.088;11.642;2023-02-04T10:05:30;96941.06;;;5.73;65.94
26978;BME280;56314;48.088;11.642;2023-02-04T10:07:56;96934.41;;;5.64;64.82
26978;BME280;56314;48.088;11.642;2023-02-04T10:10:24;96933.47;;;5.67;65.02
26978;BME280;56314;48.088;11.642;2023-02-04T10:12:54;96937.28;;;5.57;65.13
26978;BME280;56314;48.088;11.642;2023-02-04T10:15:20;96932.56;;;5.68;65.99
26978;BME280;56314;48.088;11.642;2023-02-04T10:17:48;96945.22;;;5.79;65.60
26978;BME280;56314;48.088;11.642;2023-02-04T10:20:17;96942.13;;;5.67;66.55
26978;BME280;56314;48.088;11.642;2023-02-04T10:22:44;96950.06;;;5.64;68.12
26978;BME280;56314;48.088;11.642;2023-02-04T10:25:14;96956.09;;;5.65;67.34
26978;BME280;56314;48.088;11.642;2023-02-04T10:30:26;96944.47;;;5.48;68.34
26978;BME280;56314;48.088;11.642;2023-02-04T10:32:53;96952.72;;;5.06;70.38
26978;BME280;56314;48.088;11.642;2023-02-04T10:35:20;96951.28;;;4.66;72.14
26978;BME280;56314;48.088;11.642;2023-02-04T10:37:46;96954.50;;;4.44;74.27
26978;BME280;56314;48.088;11.642;2023-02-04T10:40:32;96958.53;;;4.23;75.89
26978;BME280;56314;48.088;11.642;2023-02-04T10:42:58;96954.25;;;4.20;76.65
26978;BME280;56314;48.088;11.642;2023-02-04T10:45:28;96951.84;;;4.14;76.63
26978;BME280;56314;48.088;11.642;2023-02-04T10:47:55;96949.38;;;4.08;77.92
26978;BME280;56314;48.088;11.642;2023-02-04T10:50:25;96952.88;;;4.07;78.23
26978;BME280;56314;48.088;11.642;2023-02-04T10:52:56;96952.63;;;4.16;78.46
26978;BME280;56314;48.088;11.642;2023-02-04T10:55:40;96963.97;;;4.13;78.10
26978;BME280;56314;48.088;11.642;2023-02-04T10:58:09;96963.84;;;4.18;79.20
26978;BME280;56314;48.088;11.642;2023-02-04T11:00:36;96968.84;;;3.91;79.56
26978;BME280;56314;48.088;11.642;2023-02-04T11:03:25;96969.38;;;3.71;80.75
26978;BME280;56314;48.088;11.642;2023-02-04T11:05:55;96967.38;;;3.82;81.60
26978;BME280;56314;48.088;11.642;2023-02-04T11:10:57;96966.44;;;4.20;79.98
26978;BME280;56314;48.088;11.642;2023-02-04T11:13:25;96963.09;;;4.46;78.88
26978;BME280;56314;48.088;11.642;2023-02-04T11:18:54;96956.56;;;5.22;73.99
26978;BME280;56314;48.088;11.642;2023-02-04T11:24:22;96964.25;;;5.54;70.03
26978;BME280;56314;48.088;11.642;2023-02-04T11:29:34;96975.06;;;5.13;69.58
26978;BME280;56314;48.088;11.642;2023-02-04T11:34:52;96972.28;;;4.59;71.39
26978;BME280;56314;48.088;11.642;2023-02-04T11:39:57;96970.16;;;4.74;71.42
26978;BME280;56314;48.088;11.642;2023-02-04T11:42:42;96958.97;;;5.00;71.18
26978;BME280;56314;48.088;11.642;2023-02-04T11:45:20;96964.84;;;5.35;70.76
26978;BME280;56314;48.088;11.642;2023-02-04T11:47:49;96958.81;;;5.35;68.71
26978;BME280;56314;48.088;11.642;2023-02-04T11:52:42;96957.69;;;5.42;69.55
26978;BME280;56314;48.088;11.642;2023-02-04T11:55:10;96964.19;;;5.29;69.52
26978;BME280;56314;48.088;11.642;2023-02-04T11:57:40;96961.28;;;5.09;70.78
26978;BME280;56314;48.088;11.642;2023-02-04T12:00:17;96972.66;;;5.07;70.38
26978;BME280;56314;48.088;11.642;2023-02-04T12:02:46;96974.66;;;5.27;69.78
26978;BME280;56314;48.088;11.642;2023-02-04T12:05:14;96975.19;;;5.38;68.93
26978;BME280;56314;48.088;11.642;2023-02-04T12:07:41;96952.75;;;5.61;65.53
26978;BME280;56314;48.088;11.642;2023-02-04T12:10:25;96957.25;;;5.56;65.89
26978;BME280;56314;48.088;11.642;2023-02-04T12:12:55;96957.88;;;5.36;65.31
26978;BME280;56314;48.088;11.642;2023-02-04T12:15:30;96961.63;;;5.27;65.97
26978;BME280;56314;48.088;11.642;2023-02-04T12:18:09;96960.75;;;4.98;67.62
26978;BME280;56314;48.088;11.642;2023-02-04T12:20:38;96964.09;;;5.03;68.38
26978;BME280;56314;48.088;11.642;2023-02-04T12:23:04;96952.41;;;5.17;68.20
26978;BME280;56314;48.088;11.642;2023-02-04T12:25:30;96961.66;;;5.26;69.07
26978;BME280;56314;48.088;11.642;2023-02-04T12:27:56;96955.69;;;5.50;67.73
26978;BME280;56314;48.088;11.642;2023-02-04T12:30:23;96959.31;;;5.46;66.80
26978;BME280;56314;48.088;11.642;2023-02-04T12:32:49;96962.75;;;5.47;67.10
26978;BME280;56314;48.088;11.642;2023-02-04T12:35:15;96964.47;;;5.48;66.26
26978;BME280;56314;48.088;11.642;2023-02-04T12:37:40;96964.78;;;5.37;67.58
26978;BME280;56314;48.088;11.642;2023-02-04T12:40:06;96966.13;;;5.22;68.93
26978;BME280;56314;48.088;11.642;2023-02-04T12:42:32;96969.69;;;5.19;67.97
26978;BME280;56314;48.088;11.642;2023-02-04T12:44:57;96969.47;;;5.26;68.13
26978;BME280;56314;48.088;11.642;2023-02-04T12:47:23;96966.19;;;5.47;67.54
26978;BME280;56314;48.088;11.642;2023-02-04T12:49:49;96957.34;;;5.80;66.07
26978;BME280;56314;48.088;11.642;2023-02-04T12:52:14;96955.94;;;5.96;65.66
26978;BME280;56314;48.088;11.642;2023-02-04T12:54:40;96945.50;;;6.23;63.45
26978;BME280;56314;48.088;11.642;2023-02-04T12:57:05;96942.47;;;6.36;63.06
26978;BME280;56314;48.088;11.642;2023-02-04T12:59:30;96941.22;;;6.21;64.33
26978;BME280;56314;48.088;11.642;2023-02-04T13:01:56;96936.22;;;5.89;64.37
26978;BME280;56314;48.088;11.642;2023-02-04T13:04:22;96945.53;;;5.69;64.39
26978;BME280;56314;48.088;11.642;2023-02-04T13:06:47;96952.94;;;5.55;64.99
26978;BME280;56314;48.088;11.642;2023-02-04T13:09:13;96952.25;;;5.21;66.64
26978;BME280;56314;48.088;11.642;2023-02-04T13:11:38;96952.13;;;4.96;67.91
26978;BME280;56314;48.088;11.642;2023-02-04T13:14:03;96947.41;;;4.81;67.47
26978;BME280;56314;48.088;11.642;2023-02-04T13:16:29;96947.22;;;4.87;68.59